Time;durP1;ratioP1;P1;durP2;ratioP2;P2;SDS_P1;SDS_P2;PMS_P1;PMS_P2;Temp;Humidity;BMP_temperature;BMP_pressure;BME280_temperature;BME280_humidity;BME280_pressure;Samples;Min_cycle;Max_cycle;Signal;HPM_P1;HPM_P2
2022/06/03 00:01:34;;;;;;;3.60;3.30;;;15.80;99.90;;;;;;5034861;28;20214;-83
2022/06/03 00:04:22;;;;;;;4.13;3.73;;;15.60;99.90;;;;;;5017513;28;20239;-83
2022/06/03 00:07:05;;;;;;;4.53;3.80;;;15.70;99.90;;;;;;5035334;28;20671;-83
2022/06/03 00:09:51;;;;;;;4.47;3.57;;;15.70;99.90;;;;;;5034993;28;20214;-83
2022/06/03 00:12:39;;;;;;;3.87;3.43;;;15.80;99.90;;;;;;5035436;28;20581;-83
2022/06/03 00:15:14;;;;;;;3.97;3.67;;;15.70;99.90;;;;;;5019368;28;20227;-83
2022/06/03 00:18:06;;;;;;;4.03;3.67;;;15.70;99.90;;;;;;5035068;28;20202;-83
2022/06/03 00:20:46;;;;;;;6.50;3.80;;;15.50;99.90;;;;;;5018744;28;20211;-83
2022/06/03 00:23:38;;;;;;;3.53;3.23;;;15.40;99.90;;;;;;5035123;28;20203;-83
2022/06/03 00:26:25;;;;;;;3.43;3.20;;;15.50;99.90;;;;;;5034844;28;20227;-83
2022/06/03 00:29:14;;;;;;;4.17;3.80;;;15.50;99.90;;;;;;5034798;28;20580;-83
2022/06/03 00:32:00;;;;;;;3.57;3.27;;;15.40;99.90;;;;;;5034790;28;20206;-84
2022/06/03 00:34:43;;;;;;;5.27;4.13;;;15.40;99.90;;;;;;5034717;28;20199;-82
2022/06/03 00:37:30;;;;;;;3.93;3.47;;;15.40;99.90;;;;;;5035086;28;20203;-83
2022/06/03 00:40:07;;;;;;;4.20;3.80;;;15.30;99.90;;;;;;5034602;28;20203;-83
2022/06/03 00:42:57;;;;;;;4.80;4.03;;;15.20;99.90;;;;;;5034721;28;20209;-83
2022/06/03 00:45:38;;;;;;;4.53;3.70;;;15.10;99.90;;;;;;5034455;28;20207;-83
2022/06/03 00:48:23;;;;;;;4.37;3.60;;;15.10;99.90;;;;;;5034646;28;20207;-83
2022/06/03 00:51:03;;;;;;;4.50;3.90;;;15.10;99.90;;;;;;5034619;28;20207;-83
2022/06/03 00:53:45;;;;;;;4.27;3.70;;;15.20;99.90;;;;;;5034649;28;20211;-83
2022/06/03 00:56:39;;;;;;;4.33;3.93;;;15.10;99.90;;;;;;5034384;28;20234;-84
2022/06/03 00:59:22;;;;;;;4.40;4.00;;;15.10;99.90;;;;;;5034137;28;20215;-83
2022/06/03 01:02:01;;;;;;;4.00;3.73;;;15.20;99.90;;;;;;5034896;28;20213;-84
2022/06/03 01:04:44;;;;;;;5.23;4.17;;;15.10;99.90;;;;;;5034347;28;20207;-83
2022/06/03 01:07:21;;;;;;;5.53;4.13;;;15.00;99.90;;;;;;5034235;28;20567;-83
2022/06/03 01:10:03;;;;;;;4.80;4.13;;;15.00;99.90;;;;;;5034020;28;20211;-83
2022/06/03 01:12:54;;;;;;;3.87;3.60;;;14.90;99.90;;;;;;5034367;28;20287;-83
2022/06/03 01:15:34;;;;;;;4.50;4.10;;;14.90;99.90;;;;;;5034166;28;20598;-83
2022/06/03 01:18:21;;;;;;;4.10;3.80;;;15.00;99.90;;;;;;5034431;28;20571;-83
2022/06/03 01:21:05;;;;;;;4.90;4.40;;;15.00;99.90;;;;;;5032375;28;20431;-84
2022/06/03 01:23:59;;;;;;;5.20;4.50;;;15.20;99.90;;;;;;5033960;28;20209;-83
2022/06/03 01:26:57;;;;;;;4.47;4.07;;;15.20;99.90;;;;;;4989946;28;20237;-83
2022/06/03 01:29:51;;;;;;;4.60;4.20;;;15.30;99.90;;;;;;5033617;28;20652;-83
2022/06/03 01:32:56;;;;;;;4.13;3.83;;;15.10;99.90;;;;;;5033719;28;20545;-83
2022/06/03 01:35:41;;;;;;;5.53;4.23;;;14.80;99.90;;;;;;5030223;28;20231;-84
2022/06/03 01:38:18;;;;;;;4.10;3.80;;;14.70;99.90;;;;;;5016354;28;20210;-83
2022/06/03 01:41:00;;;;;;;4.57;4.27;;;14.80;99.90;;;;;;5033693;28;20206;-82
2022/06/03 01:43:48;;;;;;;4.83;4.37;;;14.90;99.90;;;;;;5033464;28;20645;-83
2022/06/03 01:46:28;;;;;;;4.33;4.03;;;14.90;99.90;;;;;;5033396;28;20560;-83
2022/06/03 01:49:31;;;;;;;4.80;4.40;;;14.90;99.90;;;;;;5033271;28;20265;-83
2022/06/03 01:52:30;;;;;;;4.93;4.43;;;14.90;99.90;;;;;;5033292;28;20210;-84
2022/06/03 01:55:29;;;;;;;4.63;4.23;;;14.80;99.90;;;;;;5033618;28;20203;-83
2022/06/03 01:58:24;;;;;;;4.50;4.10;;;14.80;99.90;;;;;;5032860;28;20203;-83
2022/06/03 02:01:00;;;;;;;4.93;4.53;;;14.80;99.90;;;;;;5033141;28;20211;-83
2022/06/03 02:03:55;;;;;;;5.10;4.60;;;14.70;99.90;;;;;;5033270;28;20210;-83
2022/06/03 02:07:19;;;;;;;5.53;4.70;;;14.70;99.90;;;;;;5032812;28;20219;-83
2022/06/03 02:10:14;;;;;;;5.17;4.50;;;14.70;99.90;;;;;;4952991;29;20214;-83
2022/06/03 02:13:14;;;;;;;4.93;4.50;;;14.70;99.90;;;;;;5029012;28;20207;-83
2022/06/03 02:16:04;;;;;;;4.97;4.57;;;14.80;99.90;;;;;;5033086;28;20229;-84
2022/06/03 02:19:10;;;;;;;5.50;4.80;;;14.70;99.90;;;;;;5032986;28;20203;-84
2022/06/03 02:22:01;;;;;;;6.10;3.83;;;14.70;99.90;;;;;;5009862;28;20209;-83
2022/06/03 02:24:47;;;;;;;5.53;5.00;;;14.70;99.90;;;;;;5032943;28;20203;-82
2022/06/03 02:27:51;;;;;;;4.90;4.60;;;14.70;99.90;;;;;;5033020;28;20211;-83
2022/06/03 02:31:07;;;;;;;5.70;4.17;;;14.70;99.90;;;;;;5029481;28;20245;-83
2022/06/03 02:34:07;;;;;;;5.00;4.60;;;14.60;99.90;;;;;;5031652;28;20211;-83
2022/06/03 02:37:07;;;;;;;5.47;4.80;;;14.60;99.90;;;;;;5032514;28;20234;-83
2022/06/03 02:40:03;;;;;;;5.10;4.70;;;14.60;99.90;;;;;;5031968;28;20206;-84
2022/06/03 02:43:09;;;;;;;6.03;4.63;;;14.60;99.90;;;;;;5033038;28;20661;-83
2022/06/03 02:46:03;;;;;;;5.23;4.83;;;14.50;99.90;;;;;;4975003;28;20654;-83
2022/06/03 02:49:03;;;;;;;5.20;4.70;;;14.30;99.90;;;;;;5032842;28;20206;-83
2022/06/03 02:52:15;;;;;;;5.00;4.60;;;14.30;99.90;;;;;;5032873;28;20693;-83
2022/06/03 02:55:05;;;;;;;5.17;4.60;;;14.40;99.90;;;;;;5023960;28;20217;-83
2022/06/03 02:57:53;;;;;;;5.63;4.90;;;14.30;99.90;;;;;;5032767;28;20241;-83
2022/06/03 03:00:28;;;;;;;5.57;5.07;;;14.30;99.90;;;;;;5032121;28;20447;-83
2022/06/03 03:03:21;;;;;;;4.80;4.50;;;14.60;99.90;;;;;;5033028;28;20216;-83
2022/06/03 03:06:18;;;;;;;5.83;4.80;;;14.70;99.90;;;;;;5032781;28;20211;-83
2022/06/03 03:09:13;;;;;;;5.40;5.00;;;14.60;99.90;;;;;;5031975;28;20210;-83
2022/06/03 03:12:03;;;;;;;6.50;5.50;;;14.40;99.90;;;;;;5032612;28;20210;-83
2022/06/03 03:14:49;;;;;;;5.30;4.90;;;14.50;99.90;;;;;;5032764;28;20562;-83
2022/06/03 03:17:43;;;;;;;5.67;5.27;;;14.40;99.90;;;;;;5035077;28;20235;-83
2022/06/03 03:20:40;;;;;;;5.43;5.00;;;14.40;99.90;;;;;;5036450;28;20276;-83
2022/06/03 03:23:35;;;;;;;6.10;5.50;;;14.20;99.90;;;;;;5032503;28;20206;-83
2022/06/03 03:26:15;;;;;;;5.75;5.28;;;14.30;99.90;;;;;;5034793;28;20472;-83
2022/06/03 03:29:06;;;;;;;6.80;5.63;;;14.60;99.90;;;;;;5036089;28;20207;-83
2022/06/03 03:31:56;;;;;;;7.97;5.30;;;14.50;99.90;;;;;;5036045;28;20207;-83
2022/06/03 03:34:33;;;;;;;5.60;5.20;;;14.20;99.90;;;;;;5035649;28;20685;-83
2022/06/03 03:37:20;;;;;;;9.00;5.53;;;14.20;99.90;;;;;;5036117;28;20240;-84
2022/06/03 03:40:33;;;;;;;5.67;5.27;;;14.10;99.90;;;;;;5035288;28;20689;-83
2022/06/03 03:43:48;;;;;;;5.67;5.17;;;14.10;99.90;;;;;;4955368;29;20208;-83
2022/06/03 03:46:55;;;;;;;5.80;5.30;;;14.20;99.90;;;;;;4962518;28;20217;-83
2022/06/03 03:50:17;;;;;;;6.13;5.53;;;14.20;99.90;;;;;;5035665;28;20221;-83
2022/06/03 03:53:20;;;;;;;10.87;5.37;;;14.20;99.90;;;;;;5010620;28;20237;-83
2022/06/03 03:56:29;;;;;;;6.00;5.50;;;14.10;99.90;;;;;;5035674;28;20201;-83
2022/06/03 03:59:39;;;;;;;8.47;5.40;;;14.00;99.90;;;;;;5035487;28;20213;-83
2022/06/03 04:02:44;;;;;;;6.63;5.23;;;13.90;99.90;;;;;;5035304;28;20202;-83
2022/06/03 04:05:56;;;;;;;8.27;5.90;;;13.90;99.90;;;;;;5035399;28;20561;-83
2022/06/03 04:08:54;;;;;;;5.97;5.33;;;13.90;99.90;;;;;;5035138;28;20601;-83
2022/06/03 04:11:37;;;;;;;6.33;5.30;;;13.80;99.90;;;;;;5035225;28;20658;-83
2022/06/03 04:14:34;;;;;;;10.57;6.07;;;13.90;99.90;;;;;;5034949;28;20434;-83
2022/06/03 04:17:44;;;;;;;6.10;5.63;;;14.00;99.90;;;;;;5035164;28;20241;-83
2022/06/03 04:20:28;;;;;;;6.77;5.30;;;13.70;99.90;;;;;;5034964;28;20206;-83
2022/06/03 04:23:27;;;;;;;5.73;5.23;;;13.80;99.90;;;;;;5034601;28;20661;-83
2022/06/03 04:26:24;;;;;;;10.20;5.77;;;13.90;99.90;;;;;;5029901;28;20593;-82
2022/06/03 04:29:34;;;;;;;14.40;6.50;;;14.10;99.90;;;;;;4964719;28;20214;-82
2022/06/03 04:32:40;;;;;;;14.60;6.23;;;14.10;99.90;;;;;;5034535;28;20213;-81
2022/06/03 04:35:46;;;;;;;7.63;5.63;;;14.00;99.90;;;;;;5034992;28;20214;-83
2022/06/03 04:39:04;;;;;;;10.00;5.80;;;14.00;99.90;;;;;;5013912;28;20233;-83
2022/06/03 04:42:07;;;;;;;8.68;6.35;;;14.00;99.90;;;;;;5020429;28;20434;-83
2022/06/03 04:45:12;;;;;;;7.27;6.20;;;13.90;99.90;;;;;;5034492;28;20575;-83
2022/06/03 04:48:23;;;;;;;8.50;5.17;;;13.90;99.90;;;;;;4999171;28;20606;-82
2022/06/03 04:51:33;;;;;;;6.77;5.70;;;13.70;99.90;;;;;;5017279;28;20209;-82
2022/06/03 04:54:49;;;;;;;7.70;5.30;;;13.90;99.90;;;;;;5034580;28;20210;-84
2022/06/03 04:57:49;;;;;;;5.40;4.90;;;13.90;99.90;;;;;;4935065;29;20248;-83
2022/06/03 05:00:24;;;;;;;6.10;5.63;;;13.80;99.90;;;;;;5032407;28;20210;-83
2022/06/03 05:03:35;;;;;;;7.80;5.57;;;13.80;99.90;;;;;;5014531;28;20729;-83
2022/06/03 05:06:42;;;;;;;6.97;6.15;;;14.00;99.90;;;;;;5010762;28;20818;-83
2022/06/03 05:10:09;;;;;;;5.90;5.27;;;14.40;99.90;;;;;;5014537;28;20207;-83
2022/06/03 05:13:24;;;;;;;6.60;5.53;;;14.20;99.90;;;;;;4968098;28;20685;-82
2022/06/03 05:16:42;;;;;;;5.63;5.10;;;14.10;99.90;;;;;;5014080;28;20215;-83
2022/06/03 05:19:44;;;;;;;6.40;5.80;;;14.00;99.90;;;;;;5014184;28;20206;-83
2022/06/03 05:22:40;;;;;;;5.53;4.90;;;13.90;99.90;;;;;;5014491;28;20210;-82
2022/06/03 05:25:31;;;;;;;5.90;5.50;;;14.00;99.90;;;;;;5014017;28;20230;-83
2022/06/03 05:28:28;;;;;;;5.73;5.17;;;14.00;99.90;;;;;;5014479;28;20215;-88
2022/06/03 05:31:44;;;;;;;6.03;5.53;;;14.10;99.90;;;;;;5015023;28;20214;-89
2022/06/03 05:34:44;;;;;;;9.07;5.47;;;14.20;99.90;;;;;;5015049;28;20208;-88
2022/06/03 05:37:47;;;;;;;9.10;5.47;;;14.40;99.90;;;;;;4983623;28;20696;-90
2022/06/03 05:40:37;;;;;;;7.73;5.87;;;14.60;99.90;;;;;;5017136;28;20241;-90
2022/06/03 05:43:48;;;;;;;5.50;5.00;;;14.70;99.90;;;;;;4999145;28;20621;-88
2022/06/03 05:46:22;;;;;;;5.87;5.30;;;14.40;99.90;;;;;;5016860;28;20210;-88
2022/06/03 05:49:07;;;;;;;5.97;5.13;;;14.50;99.90;;;;;;5018242;28;20211;-89
2022/06/03 05:51:51;;;;;;;5.93;5.50;;;14.50;99.90;;;;;;5015159;28;20207;-89
2022/06/03 05:54:34;;;;;;;5.87;5.27;;;14.60;99.90;;;;;;5015094;28;20204;-88
2022/06/03 05:57:15;;;;;;;6.50;5.73;;;14.60;99.90;;;;;;4998474;28;20234;-88
2022/06/03 06:00:10;;;;;;;6.00;5.50;;;14.60;99.90;;;;;;5014305;28;20212;-88
2022/06/03 06:02:42;;;;;;;9.30;5.97;;;14.70;99.90;;;;;;4997420;28;20664;-88
2022/06/03 06:05:19;;;;;;;5.67;4.93;;;14.90;99.90;;;;;;5014410;28;20215;-88
2022/06/03 06:07:54;;;;;;;5.67;5.10;;;15.10;99.90;;;;;;5014511;28;20666;-88
2022/06/03 06:10:34;;;;;;;6.03;5.20;;;15.50;99.90;;;;;;5014631;28;20206;-88
2022/06/03 06:13:23;;;;;;;5.87;5.23;;;15.80;99.90;;;;;;4996704;28;20227;-88
2022/06/03 06:16:02;;;;;;;5.67;5.10;;;15.80;99.90;;;;;;5014479;28;20209;-88
2022/06/03 06:18:43;;;;;;;5.90;5.22;;;15.80;99.90;;;;;;5013675;28;20450;-87
2022/06/03 06:21:30;;;;;;;5.20;4.70;;;16.00;99.90;;;;;;5014362;28;20208;-87
2022/06/03 06:24:05;;;;;;;5.67;5.13;;;16.20;99.90;;;;;;5014157;28;20299;-87
2022/06/03 06:26:56;;;;;;;5.83;5.17;;;16.10;99.90;;;;;;4997846;28;20236;-87
2022/06/03 06:30:12;;;;;;;8.43;5.13;;;16.30;99.90;;;;;;5013959;28;20639;-87
2022/06/03 06:33:13;;;;;;;5.20;4.70;;;16.50;99.90;;;;;;4951856;29;20202;-87
2022/06/03 06:36:32;;;;;;;5.33;4.83;;;16.20;99.90;;;;;;4934715;29;20209;-86
2022/06/03 06:39:14;;;;;;;5.40;4.90;;;16.10;99.90;;;;;;5033475;28;20199;-86
2022/06/03 06:41:50;;;;;;;6.43;5.20;;;16.30;99.90;;;;;;5033555;28;20755;-86
2022/06/03 06:44:33;;;;;;;8.53;4.97;;;16.40;99.90;;;;;;5031761;28;20206;-86
2022/06/03 06:47:14;;;;;;;4.90;4.50;;;16.30;99.90;;;;;;5031594;28;20199;-87
2022/06/03 06:49:51;;;;;;;5.83;5.43;;;16.10;99.90;;;;;;5032470;28;20270;-86
2022/06/03 06:52:38;;;;;;;6.13;5.57;;;16.10;99.90;;;;;;5032790;28;20199;-87
2022/06/03 06:55:15;;;;;;;5.07;4.77;;;16.10;99.90;;;;;;5015250;28;20209;-85
2022/06/03 06:57:46;;;;;;;5.43;4.93;;;16.20;99.90;;;;;;5037039;28;20223;-87
2022/06/03 07:00:22;;;;;;;5.83;5.33;;;16.30;99.90;;;;;;5037508;28;20207;-87
2022/06/03 07:02:57;;;;;;;7.20;5.10;;;16.50;99.90;;;;;;5037323;28;20218;-86
2022/06/03 07:05:32;;;;;;;5.63;5.13;;;16.60;99.90;;;;;;5037155;28;20391;-86
2022/06/03 07:08:06;;;;;;;5.83;5.20;;;16.60;99.90;;;;;;5036826;28;20294;-87
2022/06/03 07:10:40;;;;;;;5.00;4.70;;;16.60;99.90;;;;;;5019380;28;20212;-87
2022/06/03 07:13:13;;;;;;;5.23;4.73;;;16.90;99.90;;;;;;5017282;28;20276;-88
2022/06/03 07:15:54;;;;;;;7.23;5.40;;;17.10;99.90;;;;;;5036325;28;20663;-87
2022/06/03 07:21:19;;;;;;;6.43;4.73;;;17.40;99.90;;;;;;5037154;28;20205;-88
2022/06/03 07:23:49;;;;;;;6.53;5.30;;;17.50;99.90;;;;;;5037022;28;20661;-88
2022/06/03 07:26:23;;;;;;;8.70;4.73;;;17.50;99.90;;;;;;5036948;28;20248;-88
2022/06/03 07:28:57;;;;;;;5.23;4.77;;;17.80;99.90;;;;;;5036139;28;20192;-86
2022/06/03 07:31:31;;;;;;;4.60;4.10;;;18.20;99.90;;;;;;5036143;28;20210;-86
2022/06/03 07:34:04;;;;;;;5.68;4.95;;;18.50;99.90;;;;;;5036609;28;20945;-87
2022/06/03 07:36:45;;;;;;;6.27;4.33;;;18.60;99.90;;;;;;5036244;28;20199;-88
2022/06/03 07:39:31;;;;;;;5.17;4.80;;;18.40;99.90;;;;;;5034056;28;20203;-87
2022/06/03 07:42:06;;;;;;;4.63;4.27;;;18.20;99.90;;;;;;5034846;28;20578;-86
2022/06/03 07:44:41;;;;;;;4.70;4.30;;;18.20;99.90;;;;;;5016507;28;20207;-88
2022/06/03 07:47:10;;;;;;;5.23;4.00;;;18.20;99.90;;;;;;5016847;28;20203;-86
2022/06/03 07:49:40;;;;;;;4.70;4.30;;;18.40;99.90;;;;;;5035141;28;20635;-87
2022/06/03 07:52:18;;;;;;;4.73;4.20;;;18.40;99.90;;;;;;5037010;28;20211;-88
2022/06/03 07:54:55;;;;;;;4.77;4.20;;;18.60;99.90;;;;;;5036801;28;20202;-88
2022/06/03 07:57:25;;;;;;;4.40;4.00;;;18.70;99.90;;;;;;5035264;28;20231;-87
2022/06/03 07:59:56;;;;;;;6.70;3.67;;;18.80;99.90;;;;;;5037333;28;20220;-86
2022/06/03 08:02:24;;;;;;;8.43;4.67;;;19.20;99.90;;;;;;5037504;28;20227;-85
2022/06/03 08:05:06;;;;;;;4.70;4.30;;;19.20;99.90;;;;;;5036473;28;20240;-87
2022/06/03 08:13:08;;;;;;;4.87;4.47;;;19.30;99.90;;;;;;5036241;28;20232;-85
2022/06/03 08:15:39;;;;;;;4.47;4.07;;;19.30;99.90;;;;;;5036094;28;20217;-87
2022/06/03 08:18:08;;;;;;;4.47;4.10;;;19.30;99.90;;;;;;5035940;28;20259;-87
2022/06/03 08:20:42;;;;;;;4.83;4.23;;;19.40;99.90;;;;;;5035721;28;20230;-84
2022/06/03 08:23:09;;;;;;;5.10;4.20;;;19.30;99.90;;;;;;5035846;28;20201;-87
2022/06/03 08:25:41;;;;;;;5.28;3.90;;;19.40;99.90;;;;;;5035184;28;20882;-88
2022/06/03 08:28:22;;;;;;;3.97;3.67;;;19.70;99.90;;;;;;5037015;28;20209;-88
2022/06/03 08:30:52;;;;;;;4.10;3.70;;;20.10;99.90;;;;;;5036177;28;20730;-87
2022/06/03 08:33:31;;;;;;;6.30;3.47;;;20.20;99.90;;;;;;5036159;28;20210;-87
2022/06/03 08:36:00;;;;;;;3.10;2.90;;;20.30;99.90;;;;;;5035812;28;20648;-87
2022/06/03 08:38:31;;;;;;;3.53;3.13;;;20.40;99.90;;;;;;5035740;28;20238;-86
2022/06/03 08:41:11;;;;;;;3.27;2.97;;;20.40;99.90;;;;;;5035658;28;20207;-88
2022/06/03 08:43:49;;;;;;;3.20;3.00;;;20.30;99.90;;;;;;5035262;28;20207;-85
2022/06/03 08:46:22;;;;;;;3.37;2.90;;;20.30;99.90;;;;;;5035078;28;20216;-86
2022/06/03 08:48:55;;;;;;;3.88;2.90;;;20.30;99.90;;;;;;5035017;28;20458;-87
2022/06/03 08:51:28;;;;;;;3.07;2.63;;;20.30;99.90;;;;;;5035017;28;20662;-87
2022/06/03 08:54:00;;;;;;;3.60;3.30;;;20.40;99.90;;;;;;5034689;28;20207;-85
2022/06/03 08:56:33;;;;;;;3.07;2.77;;;20.60;99.90;;;;;;5034950;28;20657;-88
2022/06/03 08:59:03;;;;;;;2.90;2.50;;;20.50;99.90;;;;;;5035062;28;20761;-85
2022/06/03 09:01:37;;;;;;;3.17;2.90;;;20.60;99.90;;;;;;5034720;28;20681;-86
2022/06/03 09:04:18;;;;;;;4.20;2.50;;;20.70;99.90;;;;;;5035084;28;20670;-88
2022/06/03 09:06:57;;;;;;;4.27;2.80;;;21.20;99.90;;;;;;5035010;28;20212;-85
2022/06/03 09:09:36;;;;;;;5.23;2.30;;;21.30;99.90;;;;;;5034864;28;20207;-87
2022/06/03 09:12:12;;;;;;;3.20;2.90;;;21.20;99.90;;;;;;5034515;28;20207;-86
2022/06/03 09:14:42;;;;;;;3.88;2.78;;;21.10;99.90;;;;;;5033369;28;20454;-85
2022/06/03 09:17:35;;;;;;;3.43;2.80;;;21.20;99.90;;;;;;5035102;28;20240;-87
2022/06/03 09:20:08;;;;;;;3.83;3.10;;;21.30;99.90;;;;;;5034892;28;20213;-87
2022/06/03 09:22:37;;;;;;;2.87;2.63;;;21.30;99.90;;;;;;5035139;28;20206;-87
2022/06/03 09:25:10;;;;;;;2.63;2.43;;;21.70;99.90;;;;;;5034591;28;20224;-87
2022/06/03 09:27:38;;;;;;;2.17;2.03;;;21.90;99.90;;;;;;5035103;28;20293;-86
2022/06/03 09:30:07;;;;;;;5.83;2.37;;;22.10;99.90;;;;;;5034627;28;20239;-87
2022/06/03 09:32:39;;;;;;;4.27;3.17;;;22.20;99.90;;;;;;5035543;28;20207;-86
2022/06/03 09:35:10;;;;;;;5.10;2.50;;;22.40;99.90;;;;;;5035904;28;20204;-87
2022/06/03 09:37:43;;;;;;;3.10;2.33;;;22.40;99.90;;;;;;5034221;28;20223;-87
2022/06/03 09:40:16;;;;;;;2.57;2.37;;;22.60;99.90;;;;;;5034709;28;20203;-88
2022/06/03 09:42:48;;;;;;;3.03;2.20;;;22.80;99.90;;;;;;5036020;28;20204;-87
2022/06/03 09:45:19;;;;;;;3.60;2.67;;;23.10;99.90;;;;;;5045475;28;20234;-87
2022/06/03 09:47:47;;;;;;;5.80;2.87;;;22.90;99.90;;;;;;5044288;28;20204;-86
2022/06/03 09:50:16;;;;;;;2.53;2.30;;;22.70;99.90;;;;;;5034224;28;20199;-87
2022/06/03 09:52:48;;;;;;;5.37;2.13;;;22.70;99.90;;;;;;5016640;28;20213;-87
2022/06/03 09:55:28;;;;;;;3.67;2.33;;;22.70;99.90;;;;;;5034136;28;20234;-85
2022/06/03 09:57:57;;;;;;;3.27;2.20;;;23.10;99.90;;;;;;5033787;28;20219;-86
2022/06/03 10:00:28;;;;;;;2.70;2.20;;;23.20;99.90;;;;;;5034027;28;20207;-86
2022/06/03 10:02:56;;;;;;;1.90;1.80;;;23.20;99.90;;;;;;5033305;28;20228;-86
2022/06/03 10:05:23;;;;;;;4.40;2.00;;;23.20;99.90;;;;;;5033530;28;20256;-86
2022/06/03 10:08:00;;;;;;;2.13;2.03;;;23.30;99.90;;;;;;5033498;28;20207;-87
2022/06/03 10:13:16;;;;;;;4.57;1.70;;;23.50;99.90;;;;;;5033795;28;20267;-86
2022/06/03 10:15:53;;;;;;;5.73;1.70;;;23.60;99.90;;;;;;5033701;28;20207;-86
2022/06/03 10:18:30;;;;;;;2.93;2.03;;;23.60;99.90;;;;;;5033599;28;20242;-86
2022/06/03 10:21:19;;;;;;;2.37;1.60;;;23.60;99.90;;;;;;5034969;28;20197;-87
2022/06/03 10:23:57;;;;;;;5.23;1.80;;;23.60;99.90;;;;;;5024797;28;20569;-88
2022/06/03 10:26:28;;;;;;;1.63;1.50;;;23.90;99.90;;;;;;5033237;28;20702;-86
2022/06/03 10:28:58;;;;;;;2.90;1.20;;;24.10;99.00;;;;;;5033640;28;20196;-86
2022/06/03 10:31:32;;;;;;;3.83;1.37;;;24.20;98.70;;;;;;5034091;28;20215;-87
2022/06/03 10:34:04;;;;;;;6.93;2.10;;;24.20;97.50;;;;;;5033857;28;20278;-88
2022/06/03 10:36:36;;;;;;;6.07;1.83;;;24.10;97.70;;;;;;5033619;28;20203;-87
2022/06/03 10:39:08;;;;;;;2.43;1.60;;;24.10;97.90;;;;;;5033358;28;20594;-88
2022/06/03 10:41:43;;;;;;;1.30;1.20;;;24.20;98.40;;;;;;5033614;28;20199;-84
2022/06/03 10:44:15;;;;;;;3.07;1.73;;;24.30;97.60;;;;;;5033541;28;20658;-88
2022/06/03 10:46:55;;;;;;;2.87;1.67;;;24.50;97.40;;;;;;5033762;28;20214;-88
2022/06/03 10:49:30;;;;;;;4.07;1.50;;;24.40;97.50;;;;;;5033841;28;20571;-88
2022/06/03 11:03:24;;;;;;;2.37;1.63;;;24.90;96.10;;;;;;5033662;28;20203;-89
2022/06/03 11:05:55;;;;;;;1.30;1.20;;;25.00;95.30;;;;;;5033883;28;20211;-85
2022/06/03 11:08:28;;;;;;;4.87;1.70;;;25.00;94.80;;;;;;5032852;28;20668;-88
2022/06/03 11:10:59;;;;;;;1.27;1.03;;;24.90;94.70;;;;;;5033488;28;20544;-88
2022/06/03 11:13:29;;;;;;;2.80;0.97;;;25.00;95.60;;;;;;5033197;28;20303;-88
2022/06/03 11:15:56;;;;;;;1.40;1.30;;;25.00;93.70;;;;;;5016541;28;20215;-84
2022/06/03 11:18:34;;;;;;;4.23;1.30;;;25.10;93.60;;;;;;5020663;28;20227;-83
2022/06/03 11:21:19;;;;;;;2.07;1.23;;;25.10;93.80;;;;;;5032623;28;20207;-83
2022/06/03 11:23:46;;;;;;;1.63;1.20;;;25.00;93.90;;;;;;5031953;28;20745;-83
2022/06/03 11:26:14;;;;;;;1.13;1.03;;;25.00;93.30;;;;;;5018533;28;20227;-83
2022/06/03 11:28:51;;;;;;;8.00;1.43;;;25.00;92.20;;;;;;5032173;28;20212;-83
2022/06/03 11:31:27;;;;;;;1.63;1.40;;;25.20;93.10;;;;;;5033169;28;20199;-86
2022/06/03 11:34:05;;;;;;;1.30;1.30;;;25.20;92.80;;;;;;5029908;28;20685;-84
2022/06/03 11:36:40;;;;;;;1.10;1.10;;;25.10;92.10;;;;;;4998793;28;20207;-86
2022/06/03 11:39:12;;;;;;;3.40;1.50;;;25.30;92.40;;;;;;5033924;28;20233;-86
2022/06/03 11:41:45;;;;;;;1.53;1.27;;;25.70;91.90;;;;;;5036038;28;20564;-87
2022/06/03 11:44:18;;;;;;;1.80;1.23;;;25.60;91.60;;;;;;5035946;28;20435;-88
2022/06/03 11:46:51;;;;;;;2.03;1.80;;;25.70;92.70;;;;;;5036603;28;20692;-88
2022/06/03 11:49:23;;;;;;;1.70;1.40;;;25.70;91.00;;;;;;5018621;28;20696;-87
2022/06/03 11:51:51;;;;;;;2.90;1.63;;;25.90;91.90;;;;;;5022807;28;20217;-84
2022/06/03 11:54:27;;;;;;;2.87;1.30;;;25.90;91.30;;;;;;5036023;28;20207;-85
2022/06/03 11:56:56;;;;;;;1.87;1.27;;;25.90;92.20;;;;;;5036487;28;20214;-85
2022/06/03 11:59:34;;;;;;;1.03;0.97;;;26.30;92.20;;;;;;5018181;28;20277;-89
2022/06/03 12:02:09;;;;;;;1.47;1.30;;;25.90;91.30;;;;;;5036356;28;20203;-86
2022/06/03 12:04:47;;;;;;;2.73;1.30;;;26.10;91.60;;;;;;5035563;28;20210;-86
2022/06/03 12:07:30;;;;;;;27.83;23.73;;;26.30;91.50;;;;;;5035995;28;20214;-85
2022/06/03 12:10:01;;;;;;;3.77;1.73;;;26.50;90.90;;;;;;5035569;28;20207;-87
2022/06/03 12:15:34;;;;;;;3.87;1.93;;;26.10;91.50;;;;;;5035909;28;20265;-89
2022/06/03 12:18:31;;;;;;;1.83;1.30;;;26.50;91.00;;;;;;5022648;28;20202;-86
2022/06/03 12:21:02;;;;;;;2.17;1.57;;;26.70;90.30;;;;;;5010811;28;20226;-89
2022/06/03 12:23:51;;;;;;;4.47;1.30;;;26.60;90.50;;;;;;5033122;28;20195;-90
2022/06/03 12:26:26;;;;;;;3.37;1.30;;;26.60;90.50;;;;;;5034961;28;20281;-89
2022/06/03 12:28:59;;;;;;;0.97;0.97;;;26.80;90.30;;;;;;5039080;28;20237;-90
2022/06/03 12:31:36;;;;;;;1.30;1.10;;;26.40;90.70;;;;;;5019833;28;20669;-91
2022/06/03 12:34:26;;;;;;;2.10;1.40;;;26.60;90.20;;;;;;5037441;28;20439;-89
2022/06/03 12:37:00;;;;;;;1.55;1.35;;;27.10;90.30;;;;;;5012431;28;20202;-86
2022/06/03 12:39:29;;;;;;;6.13;1.60;;;27.20;89.10;;;;;;5026509;28;20226;-86
2022/06/03 12:42:06;;;;;;;3.45;1.48;;;27.20;90.90;;;;;;5032555;28;20208;-88
2022/06/03 12:44:52;;;;;;;6.15;1.40;;;27.40;88.50;;;;;;5022944;28;20226;-91
2022/06/03 12:47:49;;;;;;;4.82;1.42;;;27.40;88.80;;;;;;5035605;28;20279;-87
2022/06/03 12:50:39;;;;;;;3.47;1.63;;;27.70;90.20;;;;;;5032539;28;20222;-86
2022/06/03 12:53:29;;;;;;;1.90;1.25;;;27.30;87.90;;;;;;5034678;28;20207;-87
2022/06/03 12:56:00;;;;;;;3.22;1.45;;;27.00;86.90;;;;;;5022589;28;20211;-92
2022/06/03 12:58:48;;;;;;;3.20;1.50;;;27.00;88.10;;;;;;5016467;28;20435;-89
2022/06/03 13:01:31;;;;;;;3.63;1.33;;;26.90;86.70;;;;;;5034564;28;20211;-90
2022/06/03 13:04:47;;;;;;;3.72;1.52;;;27.10;86.80;;;;;;5044273;28;20203;-90
2022/06/03 13:07:45;;;;;;;2.28;1.40;;;27.30;87.00;;;;;;5035975;28;20210;-90
2022/06/03 13:10:23;;;;;;;1.30;1.27;;;26.80;86.80;;;;;;5030993;28;20760;-91
2022/06/03 13:12:54;;;;;;;3.13;1.50;;;26.70;88.90;;;;;;5034904;28;20207;-89
2022/06/03 13:15:44;;;;;;;2.22;1.00;;;27.00;87.60;;;;;;5035425;28;20218;-90
2022/06/03 13:18:18;;;;;;;4.03;1.50;;;27.20;85.50;;;;;;5035256;28;20198;-87
2022/06/03 13:20:47;;;;;;;2.47;1.30;;;27.40;84.60;;;;;;5034262;28;20227;-89
2022/06/03 13:23:33;;;;;;;3.25;1.33;;;27.00;85.40;;;;;;5029477;28;20199;-91
2022/06/03 13:26:34;;;;;;;2.15;1.48;;;27.20;85.50;;;;;;5015508;28;20776;-90
2022/06/03 13:29:04;;;;;;;2.00;1.70;;;27.50;85.30;;;;;;5008707;28;20208;-92
2022/06/03 13:32:00;;;;;;;2.30;1.30;;;27.90;83.50;;;;;;5015035;28;20231;-91
2022/06/03 13:34:42;;;;;;;2.25;1.45;;;27.80;84.10;;;;;;5015131;28;20243;-90
2022/06/03 13:37:33;;;;;;;3.50;1.13;;;28.30;83.10;;;;;;5023717;28;20216;-90
2022/06/03 13:40:21;;;;;;;2.55;1.40;;;28.80;81.80;;;;;;5015134;28;20235;-90
2022/06/03 13:43:17;;;;;;;2.35;1.13;;;28.50;81.10;;;;;;4986129;28;20200;-91
2022/06/03 13:46:10;;;;;;;2.60;1.42;;;28.90;79.40;;;;;;5025566;28;20210;-89
2022/06/03 13:48:55;;;;;;;2.03;1.20;;;28.60;79.30;;;;;;5014857;28;20211;-91
2022/06/03 13:52:02;;;;;;;4.22;1.50;;;28.50;80.70;;;;;;5014498;28;20641;-90
2022/06/03 13:54:38;;;;;;;1.30;0.95;;;29.40;79.20;;;;;;4997567;28;20211;-91
2022/06/03 13:57:19;;;;;;;3.03;1.70;;;29.30;78.90;;;;;;5014861;28;20552;-92
2022/06/03 13:59:48;;;;;;;1.35;1.20;;;29.70;76.40;;;;;;5014238;28;20235;-92
2022/06/03 14:02:20;;;;;;;2.88;1.00;;;29.30;78.00;;;;;;5014603;28;20199;-91
2022/06/03 14:04:56;;;;;;;2.72;2.33;;;29.40;78.70;;;;;;5014709;28;20216;-90
2022/06/03 14:07:37;;;;;;;2.13;1.73;;;30.00;76.80;;;;;;5014941;28;20576;-91
2022/06/03 14:10:12;;;;;;;3.80;1.40;;;29.50;77.40;;;;;;5014825;28;20211;-92
2022/06/03 14:12:47;;;;;;;1.40;1.30;;;29.10;76.30;;;;;;5015290;28;20207;-91
2022/06/03 14:15:22;;;;;;;7.68;6.88;;;29.10;76.40;;;;;;5014362;28;20205;-91
2022/06/03 14:17:56;;;;;;;6.57;6.00;;;28.80;76.30;;;;;;5014289;28;20286;-91
2022/06/03 14:20:28;;;;;;;2.15;1.33;;;28.70;76.00;;;;;;5014553;28;20241;-90
2022/06/03 14:23:14;;;;;;;1.45;1.30;;;28.80;77.30;;;;;;5015271;28;20697;-91
2022/06/03 14:25:46;;;;;;;2.80;1.63;;;28.90;76.10;;;;;;5015172;28;20710;-90
2022/06/03 14:28:21;;;;;;;3.47;1.80;;;29.40;75.30;;;;;;5015120;28;20192;-91
2022/06/03 14:30:55;;;;;;;2.08;1.70;;;29.70;74.80;;;;;;5019926;28;20207;-89
2022/06/03 14:33:25;;;;;;;4.25;1.30;;;29.60;74.70;;;;;;5019268;28;20199;-90
2022/06/03 14:35:56;;;;;;;2.38;2.08;;;30.00;73.50;;;;;;5015466;28;20199;-90
2022/06/03 14:38:31;;;;;;;3.78;2.22;;;29.80;73.00;;;;;;5016320;28;20591;-89